Main page


Airports :

Riyadh, Saudi Arabia

Riyadh Air Base

latitude: 24-43N, longitude: 046-44E, elevation: 635 m

METAR: missing

Time: 12:58 (09:58 UTC)


The report was made 10 hours and 58 minutes ago, at 23:00 UTC
Forecast valid from 18 at 00 UTC to 19 at 06 UTC
Wind 10 kt from the North/Northeast
Visibility: 8000 m
from 18 at 00 UTC to 18 at 12 UTC
Visibility: 4000 m
widespread dust

TAF: OERY 172300Z 1800/1906 03010KT 8000 NSC TEMPO 1800/1812 4000 DU

Weather observations and forecasts of more than 4000 airports (METAR and TAF reports).

The available stations are represented by yellow and red dots on the map.

Hover mouse over dot to see the name of the station.

Then click to see weather observations and forecasts.

To change the map : click on the green buttons with a black cross to zoom in, on the green button with a dash to zoom out, or on the green arrows for adjacent maps.